createdAt,value
2023-04-18T00:00:16.359Z,82.31
2023-04-18T00:02:37.053Z,82.31
2023-04-18T00:02:43.947Z,81.09
2023-04-18T00:05:12.274Z,80.99
2023-04-18T00:07:36.993Z,80.99
2023-04-18T00:07:39.237Z,80.51
2023-04-18T00:10:06.582Z,79.58
2023-04-18T00:12:34.377Z,79.39
2023-04-18T00:12:36.976Z,79.39
2023-04-18T00:15:04.198Z,78.85
2023-04-18T00:17:31.712Z,79.35
2023-04-18T00:17:36.997Z,79.35
2023-04-18T00:19:58.378Z,79.68
2023-04-18T00:22:25.417Z,79.58
2023-04-18T00:22:36.988Z,79.58
2023-04-18T00:24:52.158Z,79.13
2023-04-18T00:27:19.206Z,79.01
2023-04-18T00:27:36.958Z,79.01
2023-04-18T00:29:45.710Z,79.25
2023-04-18T00:32:12.042Z,79.05
2023-04-18T00:32:36.996Z,79.05
2023-04-18T00:34:38.894Z,78.29
2023-04-18T00:37:05.254Z,78.26
2023-04-18T00:37:36.973Z,78.26
2023-04-18T00:39:31.619Z,77.88
2023-04-18T00:41:58.074Z,77.85
2023-04-18T00:42:36.991Z,77.85
2023-04-18T00:44:24.449Z,77.38
2023-04-18T00:46:51.177Z,78.40
2023-04-18T00:47:37.039Z,78.40
2023-04-18T00:49:17.615Z,77.79
2023-04-18T00:51:44.563Z,78.72
2023-04-18T00:52:36.985Z,78.72
2023-04-18T00:54:13.347Z,78.99
2023-04-18T00:56:40.183Z,79.43
2023-04-18T00:57:36.992Z,79.43
2023-04-18T00:59:08.320Z,78.49
2023-04-18T01:01:34.718Z,80.65
2023-04-18T01:02:37.086Z,80.65
2023-04-18T01:04:01.359Z,80.13
2023-04-18T01:06:30.949Z,80.09
2023-04-18T01:07:36.990Z,80.09
2023-04-18T01:08:57.445Z,80.61
2023-04-18T01:11:24.076Z,81.26
2023-04-18T01:12:36.980Z,81.26
2023-04-18T01:14:01.517Z,82.19
2023-04-18T01:16:29.114Z,82.86
2023-04-18T01:17:37.010Z,82.86
2023-04-18T01:18:56.601Z,82.64
2023-04-18T01:21:23.000Z,84.00
2023-04-18T01:22:36.992Z,84.00
2023-04-18T01:23:50.655Z,84.60
2023-04-18T01:26:17.102Z,84.35
2023-04-18T01:27:36.974Z,84.35
2023-04-18T01:28:43.451Z,85.67
2023-04-18T01:31:10.174Z,88.17
2023-04-18T01:32:37.022Z,88.17
2023-04-18T01:33:37.263Z,89.29
2023-04-18T01:36:03.909Z,90.92
2023-04-18T01:37:37.030Z,90.92
2023-04-18T01:38:30.272Z,93.67
2023-04-18T01:40:56.789Z,95.31
2023-04-18T01:42:36.968Z,95.31
2023-04-18T01:43:23.181Z,97.53
2023-04-18T01:45:49.491Z,98.64
2023-04-18T01:47:37.019Z,98.64
2023-04-18T01:48:15.807Z,100.00
2023-04-18T01:50:42.134Z,100.00
2023-04-18T01:52:37.049Z,100.00
2023-04-18T01:53:08.546Z,100.00
2023-04-18T01:55:34.921Z,100.00
2023-04-18T01:57:36.968Z,100.00
2023-04-18T01:58:01.338Z,100.00
2023-04-18T02:00:27.857Z,100.00
2023-04-18T02:02:37.169Z,100.00
2023-04-18T02:02:54.510Z,100.00
2023-04-18T02:05:21.261Z,100.00
2023-04-18T02:07:36.977Z,100.00
2023-04-18T02:07:49.191Z,100.00
2023-04-18T02:10:15.793Z,100.00
2023-04-18T02:12:37.002Z,100.00
2023-04-18T02:12:42.292Z,100.00
2023-04-18T02:15:09.194Z,100.00
2023-04-18T02:17:36.337Z,100.00
2023-04-18T02:17:37.075Z,100.00
2023-04-18T02:20:02.857Z,100.00
2023-04-18T02:22:29.231Z,100.00
2023-04-18T02:22:36.996Z,100.00
2023-04-18T02:24:55.989Z,100.00
2023-04-18T02:27:22.353Z,100.00
2023-04-18T02:27:37.001Z,100.00
2023-04-18T02:29:48.683Z,100.00
2023-04-18T02:32:15.052Z,100.00
2023-04-18T02:32:37.054Z,100.00
2023-04-18T02:34:41.517Z,100.00
2023-04-18T02:37:08.107Z,100.00
2023-04-18T02:37:37.003Z,100.00
2023-04-18T02:39:34.518Z,100.00
2023-04-18T02:42:01.970Z,100.00
2023-04-18T02:42:37.010Z,100.00
2023-04-18T02:44:28.449Z,100.00
2023-04-18T02:46:54.864Z,100.00
2023-04-18T02:47:47.121Z,100.00
2023-04-18T02:49:23.563Z,100.00
2023-04-18T02:51:49.933Z,100.00
2023-04-18T02:52:37.036Z,100.00
2023-04-18T02:54:16.545Z,100.00
2023-04-18T02:56:43.004Z,100.00
2023-04-18T02:57:36.989Z,100.00
2023-04-18T02:59:09.452Z,100.00
2023-04-18T03:01:35.877Z,100.00
2023-04-18T03:02:37.088Z,100.00
2023-04-18T03:04:02.474Z,100.00
2023-04-18T03:06:29.431Z,100.00
2023-04-18T03:07:37.018Z,100.00
2023-04-18T03:08:55.864Z,100.00
2023-04-18T03:11:22.372Z,100.00
2023-04-18T03:12:37.042Z,100.00
2023-04-18T03:13:48.901Z,100.00
2023-04-18T03:16:15.783Z,100.00
2023-04-18T03:17:37.041Z,100.00
2023-04-18T03:18:42.195Z,100.00
2023-04-18T03:21:08.581Z,100.00
2023-04-18T03:22:37.008Z,100.00
2023-04-18T03:23:34.958Z,100.00
2023-04-18T03:26:04.035Z,100.00
2023-04-18T03:27:37.019Z,100.00
2023-04-18T03:28:30.945Z,100.00
2023-04-18T03:30:57.306Z,100.00
2023-04-18T03:32:37.100Z,100.00
2023-04-18T03:33:23.954Z,100.00
2023-04-18T03:35:50.643Z,100.00
2023-04-18T03:37:37.015Z,100.00
2023-04-18T03:38:17.070Z,100.00
2023-04-18T03:40:44.491Z,100.00
2023-04-18T03:42:37.001Z,100.00
2023-04-18T03:43:11.095Z,100.00
2023-04-18T03:45:37.416Z,100.00
2023-04-18T03:47:37.063Z,100.00
2023-04-18T03:48:04.044Z,100.00
2023-04-18T03:50:30.543Z,100.00
2023-04-18T03:52:37.011Z,100.00
2023-04-18T03:52:56.943Z,100.00
2023-04-18T03:55:23.374Z,100.00
2023-04-18T03:57:37.011Z,100.00
2023-04-18T03:57:50.036Z,100.00
2023-04-18T04:00:16.619Z,100.00
2023-04-18T04:02:37.281Z,100.00
2023-04-18T04:02:43.231Z,100.00
2023-04-18T04:05:09.712Z,100.00
2023-04-18T04:07:36.275Z,100.00
2023-04-18T04:07:37.004Z,100.00
2023-04-18T04:10:02.815Z,100.00
2023-04-18T04:12:29.275Z,100.00
2023-04-18T04:12:37.005Z,100.00
2023-04-18T04:15:01.768Z,100.00
2023-04-18T04:17:28.191Z,100.00
2023-04-18T04:17:37.045Z,100.00
2023-04-18T04:19:54.710Z,100.00
2023-04-18T04:22:21.013Z,100.00
2023-04-18T04:22:37.031Z,100.00
2023-04-18T04:24:47.856Z,100.00
2023-04-18T04:27:14.656Z,100.00
2023-04-18T04:27:37.027Z,100.00
2023-04-18T04:29:41.439Z,100.00
2023-04-18T04:32:08.315Z,100.00
2023-04-18T04:32:37.056Z,100.00
2023-04-18T04:34:35.635Z,100.00
2023-04-18T04:37:02.608Z,100.00
2023-04-18T04:37:37.042Z,100.00
2023-04-18T04:39:29.001Z,100.00
2023-04-18T04:41:57.630Z,100.00
2023-04-18T04:42:37.024Z,100.00
2023-04-18T04:44:25.801Z,100.00
2023-04-18T04:46:52.400Z,100.00
2023-04-18T04:47:37.075Z,100.00
2023-04-18T04:49:18.985Z,100.00
2023-04-18T04:51:47.423Z,100.00
2023-04-18T04:52:37.025Z,100.00
2023-04-18T04:54:14.251Z,100.00
2023-04-18T04:56:40.946Z,100.00
2023-04-18T04:57:37.003Z,100.00
2023-04-18T04:59:07.510Z,100.00
2023-04-18T05:01:34.105Z,100.00
2023-04-18T05:02:37.195Z,100.00
2023-04-18T05:04:00.785Z,100.00
2023-04-18T05:06:27.458Z,100.00
2023-04-18T05:07:37.069Z,100.00
2023-04-18T05:08:54.805Z,100.00
2023-04-18T05:11:21.162Z,100.00
2023-04-18T05:12:37.061Z,100.00
2023-04-18T05:13:47.554Z,100.00
2023-04-18T05:16:13.985Z,100.00
2023-04-18T05:17:37.146Z,100.00
2023-04-18T05:18:41.365Z,100.00
2023-04-18T05:21:07.805Z,100.00
2023-04-18T05:22:37.043Z,100.00
2023-04-18T05:23:37.438Z,100.00
2023-04-18T05:26:04.986Z,100.00
2023-04-18T05:27:37.028Z,100.00
2023-04-18T05:28:31.759Z,100.00
2023-04-18T05:31:01.371Z,100.00
2023-04-18T05:32:37.061Z,100.00
2023-04-18T05:33:29.187Z,100.00
2023-04-18T05:35:56.510Z,100.00
2023-04-18T05:37:37.028Z,100.00
2023-04-18T05:38:23.082Z,100.00
2023-04-18T05:40:51.131Z,100.00
2023-04-18T05:42:37.020Z,100.00
2023-04-18T05:43:19.428Z,100.00
2023-04-18T05:45:46.422Z,100.00
2023-04-18T05:47:37.092Z,100.00
2023-04-18T05:48:13.455Z,100.00
2023-04-18T05:50:40.005Z,100.00
2023-04-18T05:52:37.074Z,100.00
2023-04-18T05:53:06.558Z,100.00
2023-04-18T05:55:34.394Z,100.00
2023-04-18T05:57:37.077Z,100.00
2023-04-18T05:58:00.995Z,100.00
2023-04-18T06:00:27.912Z,100.00
2023-04-18T06:02:37.153Z,100.00
2023-04-18T06:02:54.452Z,100.00
2023-04-18T06:05:21.215Z,100.00
2023-04-18T06:07:37.089Z,100.00
2023-04-18T06:07:48.132Z,100.00
2023-04-18T06:10:15.762Z,100.00
2023-04-18T06:12:37.096Z,100.00
2023-04-18T06:12:42.343Z,100.00
2023-04-18T06:15:09.690Z,100.00
2023-04-18T06:17:36.165Z,100.00
2023-04-18T06:17:37.121Z,100.00
2023-04-18T06:20:04.907Z,100.00
2023-04-18T06:22:31.290Z,100.00
2023-04-18T06:22:37.124Z,100.00
2023-04-18T06:24:57.818Z,100.00
2023-04-18T06:27:31.373Z,100.00
2023-04-18T06:27:37.085Z,100.00
2023-04-18T06:29:58.526Z,99.79
2023-04-18T06:32:25.236Z,98.40
2023-04-18T06:32:37.121Z,98.40
2023-04-18T06:34:54.037Z,95.70
2023-04-18T06:37:20.587Z,94.88
2023-04-18T06:37:37.075Z,94.88
2023-04-18T06:39:47.135Z,93.44
2023-04-18T06:42:13.706Z,91.36
2023-04-18T06:42:37.189Z,91.36
2023-04-18T06:44:40.356Z,90.08
2023-04-18T06:47:06.772Z,89.33
2023-04-18T06:47:37.074Z,89.33
2023-04-18T06:49:33.148Z,88.77
2023-04-18T06:51:59.542Z,87.61
2023-04-18T06:52:37.106Z,87.61
2023-04-18T06:54:25.989Z,86.85
2023-04-18T06:56:52.690Z,85.29
2023-04-18T06:57:37.103Z,85.29
2023-04-18T06:59:21.370Z,88.11
2023-04-18T07:01:47.781Z,88.97
2023-04-18T07:02:37.202Z,88.97
2023-04-18T07:04:14.710Z,86.75
2023-04-18T07:06:44.409Z,86.96
2023-04-18T07:07:37.113Z,86.96
2023-04-18T07:09:10.950Z,86.81
2023-04-18T07:11:37.304Z,86.55
2023-04-18T07:12:37.120Z,86.55
2023-04-18T07:14:03.662Z,86.24
2023-04-18T07:16:30.066Z,84.13
2023-04-18T07:17:37.103Z,84.13
2023-04-18T07:18:56.752Z,82.30
2023-04-18T07:21:23.882Z,83.29
2023-04-18T07:22:37.101Z,83.29
2023-04-18T07:23:50.408Z,82.56
2023-04-18T07:26:16.831Z,80.95
2023-04-18T07:27:37.116Z,80.95
2023-04-18T07:28:43.282Z,79.75
2023-04-18T07:31:11.455Z,79.16
2023-04-18T07:32:37.137Z,79.16
2023-04-18T07:33:38.720Z,78.53
2023-04-18T07:36:06.026Z,75.93
2023-04-18T07:37:37.086Z,75.93
2023-04-18T07:38:35.250Z,74.90
2023-04-18T07:41:02.159Z,74.40
2023-04-18T07:42:37.101Z,74.40
2023-04-18T07:43:28.644Z,75.22
2023-04-18T07:45:55.220Z,77.72
2023-04-18T07:47:37.105Z,77.72
2023-04-18T07:48:22.458Z,75.53
2023-04-18T07:50:49.350Z,74.86
2023-04-18T07:52:38.196Z,74.86
2023-04-18T07:53:15.803Z,75.91
2023-04-18T07:55:43.254Z,78.82
2023-04-18T07:57:37.110Z,78.82
2023-04-18T07:58:13.002Z,80.38
2023-04-18T08:00:39.717Z,80.82
2023-04-18T08:02:37.158Z,80.82
2023-04-18T08:03:10.968Z,79.84
2023-04-18T08:05:41.769Z,83.12
2023-04-18T08:07:37.124Z,83.12
2023-04-18T08:08:10.599Z,83.83
2023-04-18T08:10:37.033Z,85.39
2023-04-18T08:12:37.131Z,85.39
2023-04-18T08:13:04.118Z,85.73
2023-04-18T08:15:32.852Z,84.16
2023-04-18T08:17:37.149Z,84.16
2023-04-18T08:18:00.650Z,85.38
2023-04-18T08:20:30.390Z,84.26
2023-04-18T08:22:46.801Z,84.26
2023-04-18T08:23:07.692Z,84.92
2023-04-18T08:25:36.223Z,86.09
2023-04-18T08:27:37.105Z,86.09
2023-04-18T08:28:02.646Z,85.73
2023-04-18T08:30:29.331Z,84.64
2023-04-18T08:32:37.202Z,84.64
2023-04-18T08:32:55.722Z,85.71
2023-04-18T08:35:22.250Z,84.56
2023-04-18T08:37:37.115Z,84.56
2023-04-18T08:37:48.561Z,83.92
2023-04-18T08:40:14.988Z,81.95
2023-04-18T08:42:37.135Z,81.95
2023-04-18T08:42:44.695Z,82.59
2023-04-18T08:45:14.125Z,81.38
2023-04-18T08:47:37.211Z,81.38
2023-04-18T08:47:41.779Z,79.92
2023-04-18T08:50:10.046Z,79.96
2023-04-18T08:52:37.766Z,78.87
2023-04-18T08:52:37.928Z,78.87
2023-04-18T08:55:05.240Z,78.92
2023-04-18T08:57:33.117Z,77.60
2023-04-18T08:57:37.109Z,77.60
2023-04-18T09:00:02.188Z,77.92
2023-04-18T09:02:42.339Z,78.45
2023-04-18T09:02:43.226Z,78.45
2023-04-18T09:05:14.024Z,79.61
2023-04-18T09:07:37.098Z,79.61
2023-04-18T09:07:41.344Z,80.52
2023-04-18T09:10:09.882Z,80.40
2023-04-18T09:12:50.110Z,80.40
2023-04-18T09:12:50.832Z,80.40
2023-04-18T09:15:20.308Z,80.45
2023-04-18T09:17:37.109Z,80.45
2023-04-18T09:17:58.076Z,80.01
2023-04-18T09:20:38.368Z,79.42
2023-04-18T09:22:38.405Z,79.42
2023-04-18T09:23:14.612Z,78.95
2023-04-18T09:25:43.220Z,78.35
2023-04-18T09:27:37.130Z,78.35
2023-04-18T09:28:27.873Z,76.59
2023-04-18T09:30:59.435Z,76.85
2023-04-18T09:32:37.163Z,76.85
2023-04-18T09:33:36.864Z,76.52
2023-04-18T09:36:21.325Z,76.96
2023-04-18T09:37:37.117Z,76.96
2023-04-18T09:38:49.173Z,77.94
2023-04-18T09:41:19.915Z,78.39
2023-04-18T09:42:37.150Z,78.39
2023-04-18T09:43:48.328Z,78.60
2023-04-18T09:46:17.518Z,79.12
2023-04-18T09:47:37.227Z,79.12
2023-04-18T09:48:44.322Z,79.09
2023-04-18T09:51:14.193Z,79.49
2023-04-18T09:52:37.143Z,79.49
2023-04-18T09:53:44.426Z,79.37
2023-04-18T09:56:27.536Z,77.48
2023-04-18T09:57:37.144Z,77.48
2023-04-18T09:59:03.095Z,76.32
2023-04-18T10:01:29.874Z,76.51
2023-04-18T10:02:37.200Z,76.51
2023-04-18T10:03:57.665Z,76.28
2023-04-18T10:06:27.285Z,77.05
2023-04-18T10:07:37.216Z,77.05
2023-04-18T10:08:54.964Z,76.32
2023-04-18T10:11:22.121Z,75.86
2023-04-18T10:12:37.163Z,75.86
2023-04-18T10:13:50.463Z,76.58
2023-04-18T10:16:17.298Z,76.31
2023-04-18T10:17:37.557Z,76.31
2023-04-18T10:18:43.689Z,75.17
2023-04-18T10:21:10.120Z,75.99
2023-04-18T10:22:37.126Z,75.99
2023-04-18T10:23:38.594Z,75.48
2023-04-18T10:26:14.974Z,74.75
2023-04-18T10:27:37.142Z,74.75
2023-04-18T10:28:58.707Z,75.27
2023-04-18T10:31:28.910Z,73.93
2023-04-18T10:32:37.148Z,73.93
2023-04-18T10:36:28.249Z,72.75
2023-04-18T10:37:37.148Z,72.75
2023-04-18T10:38:59.689Z,70.79
2023-04-18T10:41:28.235Z,71.02
2023-04-18T10:42:37.182Z,71.02
2023-04-18T10:44:09.923Z,70.67
2023-04-18T10:46:38.041Z,70.49
2023-04-18T10:47:37.292Z,70.49
2023-04-18T10:49:17.392Z,69.45
2023-04-18T10:51:45.220Z,70.59
2023-04-18T10:52:37.155Z,70.59
2023-04-18T10:54:19.867Z,71.23
2023-04-18T10:56:57.718Z,72.36
2023-04-18T10:57:37.164Z,72.36
2023-04-18T10:59:26.137Z,75.43
2023-04-18T11:01:59.539Z,73.30
2023-04-18T11:02:37.249Z,73.30
2023-04-18T11:04:26.046Z,70.38
2023-04-18T11:07:00.316Z,69.65
2023-04-18T11:07:37.153Z,69.65
2023-04-18T11:09:26.704Z,69.81
2023-04-18T11:12:10.553Z,72.68
2023-04-18T11:12:37.156Z,72.68
2023-04-18T11:14:43.954Z,71.70
2023-04-18T11:17:27.797Z,70.20
2023-04-18T11:17:37.196Z,70.20
2023-04-18T11:20:01.376Z,72.79
2023-04-18T11:22:28.026Z,74.59
2023-04-18T11:22:37.186Z,74.59
2023-04-18T11:24:58.951Z,74.09
2023-04-18T11:27:29.257Z,75.20
2023-04-18T11:27:37.191Z,75.20
2023-04-18T11:29:56.122Z,75.43
2023-04-18T11:32:24.139Z,76.17
2023-04-18T11:32:37.208Z,76.17
2023-04-18T11:34:54.953Z,76.18
2023-04-18T11:37:21.784Z,75.54
2023-04-18T11:37:37.142Z,75.54
2023-04-18T11:39:48.165Z,78.09
2023-04-18T11:42:14.838Z,77.09
2023-04-18T11:42:37.198Z,77.09
2023-04-18T11:44:45.760Z,75.30
2023-04-18T11:47:29.892Z,73.82
2023-04-18T11:47:37.277Z,73.82
2023-04-18T11:50:00.050Z,75.23
2023-04-18T11:52:27.979Z,75.43
2023-04-18T11:52:37.241Z,75.43
2023-04-18T11:54:55.504Z,76.36
2023-04-18T11:57:27.359Z,78.02
2023-04-18T11:57:37.260Z,78.02
2023-04-18T11:59:56.577Z,74.86
2023-04-18T12:02:38.677Z,74.26
2023-04-18T12:02:39.102Z,74.26
2023-04-18T12:05:06.292Z,75.91
2023-04-18T12:07:44.484Z,74.96
2023-04-18T12:07:44.612Z,74.96
2023-04-18T12:10:19.848Z,76.08
2023-04-18T12:12:37.349Z,76.08
2023-04-18T12:12:58.712Z,76.15
2023-04-18T12:15:28.122Z,73.97
2023-04-18T12:17:37.434Z,73.97
2023-04-18T12:18:02.385Z,74.82
2023-04-18T12:20:47.311Z,74.78
2023-04-18T12:22:37.424Z,74.78
2023-04-18T12:23:37.205Z,72.40
2023-04-18T12:26:04.563Z,72.54
2023-04-18T12:27:37.445Z,72.54
2023-04-18T12:28:31.824Z,72.94
2023-04-18T12:30:58.858Z,71.24
2023-04-18T12:32:37.513Z,71.24
2023-04-18T12:33:25.523Z,71.22
2023-04-18T12:35:52.723Z,71.65
2023-04-18T12:37:37.500Z,71.65
2023-04-18T12:38:23.163Z,71.21
2023-04-18T12:40:51.050Z,71.71
2023-04-18T12:42:37.525Z,71.71
2023-04-18T12:43:18.263Z,69.43
2023-04-18T12:45:45.704Z,67.26
2023-04-18T12:47:37.744Z,67.26
2023-04-18T12:48:12.666Z,69.18
2023-04-18T12:50:39.218Z,71.32
2023-04-18T12:52:37.653Z,71.32
2023-04-18T12:53:06.006Z,68.81
2023-04-18T12:55:32.727Z,69.18
2023-04-18T12:57:37.610Z,69.18
2023-04-18T12:57:59.196Z,68.10
2023-04-18T13:00:29.150Z,68.20
2023-04-18T13:02:37.860Z,68.20
2023-04-18T13:02:56.390Z,67.98
2023-04-18T13:05:29.873Z,67.19
2023-04-18T13:07:37.715Z,67.19
2023-04-18T13:08:15.425Z,70.05
2023-04-18T13:10:44.049Z,67.78
2023-04-18T13:12:37.718Z,67.78
2023-04-18T13:13:10.788Z,67.27
2023-04-18T13:15:37.303Z,67.47
2023-04-18T13:17:38.133Z,67.47
2023-04-18T13:18:06.333Z,68.73
2023-04-18T13:20:34.011Z,70.00
2023-04-18T13:22:37.783Z,70.00
2023-04-18T13:23:01.757Z,70.58
2023-04-18T13:25:28.138Z,72.11
2023-04-18T13:27:39.625Z,72.11
2023-04-18T13:27:55.218Z,71.93
2023-04-18T13:30:21.639Z,73.32
2023-04-18T13:32:37.940Z,73.32
2023-04-18T13:32:47.968Z,74.31
2023-04-18T13:35:14.602Z,71.05
2023-04-18T13:37:37.907Z,71.05
2023-04-18T13:37:41.036Z,70.78
2023-04-18T13:40:08.096Z,71.75
2023-04-18T13:42:36.147Z,71.36
2023-04-18T13:42:37.923Z,71.36
2023-04-18T13:45:03.405Z,71.29
2023-04-18T13:47:29.968Z,71.81
2023-04-18T13:47:38.095Z,71.81
2023-04-18T13:49:57.670Z,71.84
2023-04-18T13:52:24.507Z,70.54
2023-04-18T13:52:37.996Z,70.54
2023-04-18T13:54:50.950Z,70.02
2023-04-18T13:57:17.362Z,69.97
2023-04-18T13:57:38.049Z,69.97
2023-04-18T13:59:43.742Z,67.36
2023-04-18T14:02:10.585Z,67.25
2023-04-18T14:02:38.307Z,67.25
2023-04-18T14:04:37.360Z,65.58
2023-04-18T14:07:04.035Z,65.84
2023-04-18T14:07:38.073Z,65.84
2023-04-18T14:09:30.532Z,66.58
2023-04-18T14:11:58.184Z,65.86
2023-04-18T14:12:38.117Z,65.86
2023-04-18T14:14:24.607Z,66.79
2023-04-18T14:16:51.215Z,66.35
2023-04-18T14:17:38.112Z,66.35
2023-04-18T14:19:17.935Z,65.48
2023-04-18T14:21:44.330Z,67.64
2023-04-18T14:22:38.077Z,67.64
2023-04-18T14:24:11.997Z,68.39
2023-04-18T14:26:38.379Z,67.01
2023-04-18T14:27:38.026Z,67.01
2023-04-18T14:29:05.144Z,67.14
2023-04-18T14:31:31.656Z,67.34
2023-04-18T14:32:38.162Z,67.34
2023-04-18T14:33:58.121Z,68.46
2023-04-18T14:36:24.568Z,67.75
2023-04-18T14:37:38.038Z,67.75
2023-04-18T14:38:51.345Z,68.93
2023-04-18T14:41:17.693Z,68.22
2023-04-18T14:42:38.060Z,68.22
2023-04-18T14:43:44.071Z,67.18
2023-04-18T14:46:12.332Z,66.82
2023-04-18T14:47:38.139Z,66.82
2023-04-18T14:48:38.789Z,67.55
2023-04-18T14:51:05.289Z,66.34
2023-04-18T14:52:38.108Z,66.34
2023-04-18T14:53:31.675Z,66.05
2023-04-18T14:55:57.987Z,64.88
2023-04-18T14:57:38.039Z,64.88
2023-04-18T14:58:24.435Z,64.95
2023-04-18T15:00:50.763Z,63.64
2023-04-18T15:02:38.283Z,63.64
2023-04-18T15:03:17.308Z,64.22
2023-04-18T15:05:46.433Z,61.89
2023-04-18T15:07:38.062Z,61.89
2023-04-18T15:08:13.414Z,62.32
2023-04-18T15:10:41.058Z,61.21
2023-04-18T15:12:38.039Z,61.21
2023-04-18T15:13:07.534Z,60.75
2023-04-18T15:15:35.509Z,60.23
2023-04-18T15:17:38.140Z,60.23
2023-04-18T15:18:02.778Z,60.67
2023-04-18T15:20:29.595Z,60.34
2023-04-18T15:22:38.064Z,60.34
2023-04-18T15:22:56.903Z,61.30
2023-04-18T15:25:23.633Z,62.33
2023-04-18T15:27:38.071Z,62.33
2023-04-18T15:27:50.096Z,60.92
2023-04-18T15:30:16.452Z,60.19
2023-04-18T15:32:38.107Z,60.19
2023-04-18T15:32:45.499Z,61.05
2023-04-18T15:35:12.701Z,59.30
2023-04-18T15:37:39.238Z,60.02
2023-04-18T15:37:39.397Z,60.02
2023-04-18T15:40:09.271Z,58.02
2023-04-18T15:42:38.752Z,57.12
2023-04-18T15:42:38.915Z,57.12
2023-04-18T15:45:05.638Z,57.64
2023-04-18T15:47:33.650Z,56.96
2023-04-18T15:47:38.153Z,56.96
2023-04-18T15:50:00.674Z,58.06
2023-04-18T15:52:27.034Z,55.22
2023-04-18T15:52:38.115Z,55.22
2023-04-18T15:54:53.774Z,54.69
2023-04-18T15:57:20.975Z,55.80
2023-04-18T15:57:38.082Z,55.80
2023-04-18T15:59:47.374Z,58.10
2023-04-18T16:02:13.887Z,58.47
2023-04-18T16:02:38.127Z,58.47
2023-04-18T16:04:40.499Z,60.06
2023-04-18T16:07:08.120Z,58.78
2023-04-18T16:07:38.060Z,58.78
2023-04-18T16:09:34.564Z,57.54
2023-04-18T16:12:03.099Z,57.49
2023-04-18T16:12:38.103Z,57.49
2023-04-18T16:14:30.417Z,58.95
2023-04-18T16:17:00.164Z,59.47
2023-04-18T16:17:38.147Z,59.47
2023-04-18T16:19:26.685Z,59.83
2023-04-18T16:21:53.082Z,59.28
2023-04-18T16:22:38.089Z,59.28
2023-04-18T16:24:19.554Z,57.95
2023-04-18T16:26:46.295Z,57.44
2023-04-18T16:27:38.095Z,57.44
2023-04-18T16:29:14.905Z,58.82
2023-04-18T16:31:43.113Z,57.83
2023-04-18T16:32:38.163Z,57.83
2023-04-18T16:34:09.712Z,57.65
2023-04-18T16:36:36.218Z,58.19
2023-04-18T16:37:38.114Z,58.19
2023-04-18T16:39:02.592Z,62.54
2023-04-18T16:41:28.941Z,64.77
2023-04-18T16:42:38.079Z,64.77
2023-04-18T16:43:55.397Z,64.64
2023-04-18T16:46:21.889Z,65.50
2023-04-18T16:47:38.172Z,65.50
2023-04-18T16:48:49.858Z,67.60
2023-04-18T16:51:18.349Z,65.40
2023-04-18T16:52:38.102Z,65.40
2023-04-18T16:53:46.332Z,64.79
2023-04-18T16:56:12.717Z,65.65
2023-04-18T16:57:38.082Z,65.65
2023-04-18T16:58:39.121Z,66.74
2023-04-18T17:01:08.141Z,66.75
2023-04-18T17:02:38.213Z,66.75
2023-04-18T17:03:34.719Z,67.22
2023-04-18T17:06:01.611Z,67.62
2023-04-18T17:07:38.074Z,67.62
2023-04-18T17:08:28.801Z,66.54
2023-04-18T17:10:55.353Z,68.80
2023-04-18T17:12:38.118Z,68.80
2023-04-18T17:13:26.620Z,70.25
2023-04-18T17:15:53.710Z,69.91
2023-04-18T17:17:38.117Z,69.91
2023-04-18T17:18:20.024Z,69.16
2023-04-18T17:20:46.422Z,69.06
2023-04-18T17:22:38.120Z,69.06
2023-04-18T17:23:13.279Z,70.79
2023-04-18T17:25:39.687Z,71.01
2023-04-18T17:27:38.104Z,71.01
2023-04-18T17:28:06.100Z,73.06
2023-04-18T17:30:32.557Z,72.43
2023-04-18T17:32:38.178Z,72.43
2023-04-18T17:32:58.989Z,72.85
2023-04-18T17:35:25.789Z,73.97
2023-04-18T17:37:38.096Z,73.97
2023-04-18T17:37:52.853Z,74.16
2023-04-18T17:40:19.184Z,73.93
2023-04-18T17:42:38.091Z,73.93
2023-04-18T17:42:45.732Z,74.30
2023-04-18T17:45:12.200Z,75.17
2023-04-18T17:47:38.762Z,76.17
2023-04-18T17:47:39.014Z,76.17
2023-04-18T17:50:05.748Z,76.43
2023-04-18T17:52:32.414Z,75.96
2023-04-18T17:52:38.090Z,75.96
2023-04-18T17:54:59.544Z,77.27
2023-04-18T17:57:26.668Z,76.95
2023-04-18T17:57:38.162Z,76.95
2023-04-18T17:59:53.479Z,76.62
2023-04-18T18:02:23.537Z,77.19
2023-04-18T18:02:38.279Z,77.19
2023-04-18T18:04:50.312Z,77.25
2023-04-18T18:07:16.907Z,77.17
2023-04-18T18:07:38.121Z,77.17
2023-04-18T18:09:43.323Z,78.09
2023-04-18T18:12:09.947Z,77.59
2023-04-18T18:12:38.147Z,77.59
2023-04-18T18:14:36.574Z,78.03
2023-04-18T18:17:03.373Z,78.28
2023-04-18T18:17:38.163Z,78.28
2023-04-18T18:19:29.895Z,78.94
2023-04-18T18:21:58.658Z,80.18
2023-04-18T18:22:38.136Z,80.18
2023-04-18T18:24:26.840Z,80.04
2023-04-18T18:26:53.286Z,80.68
2023-04-18T18:27:38.146Z,80.68
2023-04-18T18:29:20.246Z,82.05
2023-04-18T18:31:46.824Z,83.10
2023-04-18T18:32:38.192Z,83.10
2023-04-18T18:34:13.531Z,84.90
2023-04-18T18:36:40.170Z,85.33
2023-04-18T18:37:38.130Z,85.33
2023-04-18T18:39:06.971Z,86.27
2023-04-18T18:41:33.374Z,86.60
2023-04-18T18:42:38.146Z,86.60
2023-04-18T18:43:59.908Z,86.41
2023-04-18T18:46:27.201Z,86.75
2023-04-18T18:47:39.870Z,86.75
2023-04-18T18:48:53.592Z,87.10
2023-04-18T18:51:20.054Z,86.87
2023-04-18T18:52:38.150Z,86.87
2023-04-18T18:53:46.701Z,86.99
2023-04-18T18:56:13.224Z,86.87
2023-04-18T18:57:38.140Z,86.87
2023-04-18T18:58:40.376Z,86.79
2023-04-18T19:01:06.767Z,87.84
2023-04-18T19:02:38.476Z,87.84
2023-04-18T19:03:34.667Z,88.28
2023-04-18T19:06:03.884Z,88.08
2023-04-18T19:07:38.102Z,88.08
2023-04-18T19:08:30.863Z,88.60
2023-04-18T19:10:57.233Z,88.94
2023-04-18T19:12:38.167Z,88.94
2023-04-18T19:13:24.088Z,88.92
2023-04-18T19:15:52.959Z,89.37
2023-04-18T19:17:38.191Z,89.37
2023-04-18T19:18:20.263Z,90.42
2023-04-18T19:20:46.903Z,90.94
2023-04-18T19:22:38.150Z,90.94
2023-04-18T19:23:13.357Z,90.51
2023-04-18T19:25:39.803Z,90.09
2023-04-18T19:27:38.172Z,90.09
2023-04-18T19:28:06.492Z,89.85
2023-04-18T19:30:32.849Z,90.09
2023-04-18T19:32:38.191Z,90.09
2023-04-18T19:32:59.285Z,89.98
2023-04-18T19:35:25.990Z,91.33
2023-04-18T19:37:38.154Z,91.33
2023-04-18T19:37:52.343Z,91.42
2023-04-18T19:40:18.881Z,91.89
2023-04-18T19:42:38.136Z,91.89
2023-04-18T19:42:46.179Z,92.55
2023-04-18T19:45:14.956Z,91.99
2023-04-18T19:47:38.306Z,91.99
2023-04-18T19:47:43.912Z,92.07
2023-04-18T19:50:11.465Z,91.98
2023-04-18T19:52:37.974Z,91.38
2023-04-18T19:52:38.141Z,91.38
2023-04-18T19:55:05.020Z,89.92
2023-04-18T19:57:31.615Z,89.80
2023-04-18T19:57:38.136Z,89.80
2023-04-18T19:59:58.078Z,90.27
2023-04-18T20:02:24.544Z,90.56
2023-04-18T20:02:38.375Z,90.56
2023-04-18T20:04:51.213Z,90.47
2023-04-18T20:07:17.897Z,89.29
2023-04-18T20:07:38.164Z,89.29
2023-04-18T20:09:44.232Z,88.57
2023-04-18T20:12:10.750Z,88.53
2023-04-18T20:12:38.162Z,88.53
2023-04-18T20:14:37.074Z,88.96
2023-04-18T20:17:03.387Z,89.56
2023-04-18T20:17:38.187Z,89.56
2023-04-18T20:19:29.899Z,90.21
2023-04-18T20:21:56.405Z,89.63
2023-04-18T20:22:38.173Z,89.63
2023-04-18T20:24:23.635Z,89.23
2023-04-18T20:26:51.401Z,89.62
2023-04-18T20:27:38.142Z,89.62
2023-04-18T20:29:17.788Z,89.06
2023-04-18T20:31:44.271Z,88.30
2023-04-18T20:32:38.182Z,88.30
2023-04-18T20:34:11.034Z,88.13
2023-04-18T20:36:41.597Z,88.83
2023-04-18T20:37:38.140Z,88.83
2023-04-18T20:39:08.946Z,88.86
2023-04-18T20:41:36.800Z,89.46
2023-04-18T20:42:38.158Z,89.46
2023-04-18T20:44:06.540Z,87.99
2023-04-18T20:46:33.104Z,87.60
2023-04-18T20:47:38.219Z,87.60
2023-04-18T20:48:59.699Z,87.16
2023-04-18T20:51:26.820Z,87.52
2023-04-18T20:52:38.170Z,87.52
2023-04-18T20:53:53.192Z,86.85
2023-04-18T20:56:20.113Z,87.66
2023-04-18T20:57:38.221Z,87.66
2023-04-18T20:58:46.561Z,87.91
2023-04-18T21:01:12.944Z,86.77
2023-04-18T21:02:38.274Z,86.77
2023-04-18T21:03:39.445Z,86.85
2023-04-18T21:06:06.026Z,87.42
2023-04-18T21:07:38.159Z,87.42
2023-04-18T21:08:35.041Z,86.95